Time;durP1;ratioP1;P1;durP2;ratioP2;P2;SDS_P1;SDS_P2;PMS_P1;PMS_P2;Temp;Humidity;BMP_temperature;BMP_pressure;BME280_temperature;BME280_humidity;BME280_pressure;Samples;Min_cycle;Max_cycle;Signal;HPM_P1;HPM_P2
2022/06/13 00:01:34;;;;;;;11.63;2.80;;;22.50;57.90;;;;;;5065160;28;20059;-59
2022/06/13 00:04:01;;;;;;;8.15;2.88;;;22.40;57.80;;;;;;5062049;28;20029;-59
2022/06/13 00:06:26;;;;;;;11.88;2.90;;;22.40;57.80;;;;;;5062153;28;20098;-59
2022/06/13 00:08:52;;;;;;;8.80;3.08;;;22.50;57.90;;;;;;5062551;28;20485;-59
2022/06/13 00:11:19;;;;;;;8.45;2.92;;;22.40;57.80;;;;;;5060575;28;20032;-59
2022/06/13 00:13:46;;;;;;;9.43;3.28;;;22.40;57.90;;;;;;5065922;28;20030;-59
2022/06/13 00:16:12;;;;;;;9.63;2.80;;;22.40;57.90;;;;;;5061501;28;20131;-59
2022/06/13 00:18:38;;;;;;;10.20;3.00;;;22.40;58.00;;;;;;5061065;28;20659;-59
2022/06/13 00:21:04;;;;;;;10.68;2.92;;;22.40;57.80;;;;;;5061499;28;20040;-59
2022/06/13 00:23:30;;;;;;;9.43;2.80;;;22.40;57.90;;;;;;5060887;28;20436;-59
2022/06/13 00:25:56;;;;;;;10.25;2.80;;;22.40;58.00;;;;;;5068395;28;20036;-59
2022/06/13 00:28:21;;;;;;;8.40;3.08;;;22.30;57.90;;;;;;5063621;28;20032;-59
2022/06/13 00:30:47;;;;;;;7.90;2.67;;;22.30;57.90;;;;;;5065556;28;20024;-59
2022/06/13 00:33:13;;;;;;;8.55;2.90;;;22.30;57.90;;;;;;5065241;28;20037;-59
2022/06/13 00:35:38;;;;;;;8.18;2.65;;;22.30;57.90;;;;;;5064398;28;20592;-59
2022/06/13 00:38:04;;;;;;;8.57;3.20;;;22.30;57.90;;;;;;5065569;28;20027;-59
2022/06/13 00:40:31;;;;;;;9.93;2.80;;;22.30;57.80;;;;;;5067445;28;20116;-59
2022/06/13 00:42:56;;;;;;;9.82;3.17;;;22.30;57.90;;;;;;5069246;28;20036;-59
2022/06/13 00:45:24;;;;;;;8.25;2.75;;;22.30;57.90;;;;;;5067400;28;20037;-59
2022/06/13 00:47:52;;;;;;;8.63;3.08;;;22.30;58.00;;;;;;5065678;28;20020;-59
2022/06/13 00:50:31;;;;;;;8.18;2.92;;;22.20;57.80;;;;;;5066073;28;20139;-59
2022/06/13 00:53:02;;;;;;;9.27;3.00;;;22.30;57.90;;;;;;5070003;28;20071;-59
2022/06/13 00:55:49;;;;;;;9.98;3.05;;;22.20;57.90;;;;;;5065904;28;20526;-59
2022/06/13 00:58:14;;;;;;;8.50;2.80;;;22.20;57.90;;;;;;5066616;28;20047;-59
2022/06/13 01:00:42;;;;;;;8.50;2.85;;;22.20;57.80;;;;;;5065039;28;20033;-59
2022/06/13 01:03:07;;;;;;;7.90;2.88;;;22.20;58.00;;;;;;5064722;28;20056;-59
2022/06/13 01:05:38;;;;;;;8.65;2.83;;;22.20;58.00;;;;;;5064893;28;20040;-59
2022/06/13 01:08:05;;;;;;;8.88;2.83;;;22.20;58.00;;;;;;5068680;28;20032;-59
2022/06/13 01:13:14;;;;;;;9.00;3.33;;;22.20;58.00;;;;;;5063680;28;20031;-59
2022/06/13 01:15:58;;;;;;;8.13;2.60;;;22.20;58.00;;;;;;5067761;28;20036;-59
2022/06/13 01:18:42;;;;;;;6.65;2.33;;;22.20;58.00;;;;;;5068201;28;20671;-59
2022/06/13 01:21:47;;;;;;;8.50;2.65;;;22.10;58.00;;;;;;5064534;28;20119;-58
2022/06/13 01:24:42;;;;;;;6.57;2.60;;;22.10;57.90;;;;;;5067501;28;20052;-59
2022/06/13 01:27:17;;;;;;;7.53;2.88;;;22.10;58.00;;;;;;5026754;28;20038;-59
2022/06/13 01:29:53;;;;;;;7.28;2.60;;;22.10;58.00;;;;;;5026672;28;20395;-59
2022/06/13 01:32:24;;;;;;;7.00;2.42;;;22.10;58.00;;;;;;5011398;28;20041;-59
2022/06/13 01:34:52;;;;;;;8.15;2.70;;;22.10;58.00;;;;;;5013852;28;20029;-59
2022/06/13 01:37:40;;;;;;;8.57;2.90;;;22.10;58.00;;;;;;5025273;28;20116;-59
2022/06/13 01:40:05;;;;;;;7.60;2.50;;;22.10;58.10;;;;;;5007387;28;20025;-59
2022/06/13 01:43:05;;;;;;;7.47;2.60;;;22.10;59.10;;;;;;5027178;28;20508;-59
2022/06/13 01:45:45;;;;;;;7.72;2.60;;;22.00;58.00;;;;;;5025586;28;20520;-59
2022/06/13 01:48:35;;;;;;;8.23;2.70;;;22.00;58.00;;;;;;5022474;28;20042;-59
2022/06/13 01:51:22;;;;;;;7.35;2.40;;;22.00;58.00;;;;;;5020443;28;20069;-59
2022/06/13 01:53:55;;;;;;;7.88;2.70;;;22.00;58.00;;;;;;5010327;28;20124;-59
2022/06/13 01:57:09;;;;;;;7.03;2.65;;;22.00;58.00;;;;;;5005657;28;20053;-59
2022/06/13 01:59:59;;;;;;;7.30;2.90;;;22.00;58.10;;;;;;4981678;28;20046;-59
2022/06/13 02:02:48;;;;;;;8.13;2.58;;;22.00;58.00;;;;;;5000797;28;20104;-59
2022/06/13 02:05:36;;;;;;;6.68;2.70;;;22.00;58.10;;;;;;4984199;28;21965;-59
2022/06/13 02:08:13;;;;;;;6.53;2.38;;;22.00;58.10;;;;;;4984659;28;20192;-59
2022/06/13 02:10:44;;;;;;;7.40;2.55;;;22.00;58.10;;;;;;4987284;28;20034;-59
2022/06/13 02:13:19;;;;;;;8.32;2.70;;;21.90;58.00;;;;;;4987708;28;20034;-59
2022/06/13 02:15:48;;;;;;;8.18;2.60;;;21.90;58.00;;;;;;4969123;28;20460;-59
2022/06/13 02:18:16;;;;;;;6.03;2.25;;;21.90;58.10;;;;;;4984309;28;20037;-59
2022/06/13 02:20:43;;;;;;;8.48;2.75;;;21.90;58.00;;;;;;4986180;28;20033;-59
2022/06/13 02:23:12;;;;;;;8.15;2.60;;;21.90;58.20;;;;;;4986477;28;20526;-59
2022/06/13 02:25:51;;;;;;;7.38;2.38;;;21.90;58.10;;;;;;4984828;28;20030;-59
2022/06/13 02:28:24;;;;;;;7.43;2.50;;;21.90;58.10;;;;;;5014517;28;20454;-59
2022/06/13 02:30:52;;;;;;;5.95;2.33;;;21.90;58.10;;;;;;4997854;28;20105;-59
2022/06/13 02:33:22;;;;;;;7.68;2.67;;;21.90;58.10;;;;;;4999141;28;20065;-59
2022/06/13 02:35:54;;;;;;;6.30;2.38;;;21.90;58.10;;;;;;5014754;28;20045;-59
2022/06/13 02:38:35;;;;;;;7.45;2.35;;;21.90;58.10;;;;;;5042725;28;20437;-59
2022/06/13 02:41:04;;;;;;;5.78;2.17;;;21.80;58.10;;;;;;5029872;28;20512;-59
2022/06/13 02:43:40;;;;;;;5.32;2.25;;;21.90;58.20;;;;;;5042989;28;20029;-58
2022/06/13 02:46:15;;;;;;;8.15;2.40;;;21.90;58.20;;;;;;5043633;28;20031;-58
2022/06/13 02:48:56;;;;;;;6.78;2.40;;;21.80;58.20;;;;;;5045548;28;20044;-59
2022/06/13 02:51:50;;;;;;;5.50;2.25;;;21.80;58.20;;;;;;5045316;28;20043;-59
2022/06/13 02:54:30;;;;;;;5.50;2.00;;;21.80;58.20;;;;;;5038525;28;20036;-59
2022/06/13 02:57:25;;;;;;;7.25;2.50;;;21.80;58.20;;;;;;5042033;28;20085;-59
2022/06/13 02:59:57;;;;;;;5.50;2.40;;;21.80;58.20;;;;;;5041676;28;20037;-59
2022/06/13 03:02:34;;;;;;;6.70;2.40;;;21.80;58.30;;;;;;5045021;28;20584;-59
2022/06/13 03:05:05;;;;;;;6.80;2.30;;;21.80;58.30;;;;;;5045559;28;20103;-58
2022/06/13 03:07:35;;;;;;;6.78;2.30;;;21.80;58.30;;;;;;5031357;28;20044;-59
2022/06/13 03:10:06;;;;;;;5.65;2.10;;;21.80;58.30;;;;;;5043669;28;20025;-59
2022/06/13 03:12:58;;;;;;;7.82;2.60;;;21.70;58.30;;;;;;5044674;28;20083;-59
2022/06/13 03:15:33;;;;;;;7.38;2.50;;;21.80;58.30;;;;;;5045514;28;20123;-58
2022/06/13 03:18:08;;;;;;;6.68;2.50;;;21.70;58.30;;;;;;5043734;28;20488;-59
2022/06/13 03:20:35;;;;;;;;;;;21.70;58.30;;;;;;5041788;28;20025;-59
2022/06/13 03:23:21;;;;;;;6.47;2.42;;;21.70;58.30;;;;;;5058484;28;20015;-59
2022/06/13 03:25:55;;;;;;;7.38;2.40;;;21.70;58.40;;;;;;5040493;28;20545;-59
2022/06/13 03:28:29;;;;;;;6.05;2.33;;;21.70;58.40;;;;;;5027494;28;20036;-59
2022/06/13 03:31:22;;;;;;;6.20;2.30;;;21.70;58.30;;;;;;5042684;28;20051;-59
2022/06/13 03:33:49;;;;;;;6.53;2.47;;;21.70;58.40;;;;;;5040299;28;20037;-59
2022/06/13 03:36:36;;;;;;;6.60;2.10;;;21.70;58.30;;;;;;5047121;28;20044;-59
2022/06/13 03:39:13;;;;;;;6.82;2.38;;;21.70;58.40;;;;;;5045502;28;20025;-59
2022/06/13 03:41:42;;;;;;;7.00;2.47;;;21.70;58.40;;;;;;5042394;28;20026;-58
2022/06/13 03:44:29;;;;;;;5.28;2.28;;;21.60;58.40;;;;;;5048097;28;20024;-59
2022/06/13 03:47:01;;;;;;;5.07;2.22;;;21.70;58.50;;;;;;5046936;28;20028;-59
2022/06/13 03:49:56;;;;;;;5.43;2.17;;;21.70;58.50;;;;;;5047848;28;20032;-59
2022/06/13 03:52:22;;;;;;;4.75;2.15;;;21.60;58.40;;;;;;5062054;28;20056;-59
2022/06/13 03:55:11;;;;;;;5.93;2.30;;;21.60;58.50;;;;;;5063377;28;20016;-59
2022/06/13 03:58:09;;;;;;;5.75;2.17;;;21.60;58.50;;;;;;5047460;28;20029;-59
2022/06/13 04:00:39;;;;;;;6.10;2.28;;;21.60;58.50;;;;;;5064014;28;20024;-59
2022/06/13 04:03:05;;;;;;;7.50;2.25;;;21.60;58.60;;;;;;5063268;28;20107;-59
2022/06/13 04:05:53;;;;;;;6.97;2.30;;;21.60;58.60;;;;;;5061340;28;20170;-59
2022/06/13 04:08:18;;;;;;;5.38;2.17;;;21.60;58.60;;;;;;5063058;28;20089;-59
2022/06/13 04:10:59;;;;;;;5.65;1.90;;;21.60;58.60;;;;;;5063800;28;20040;-59
2022/06/13 04:13:31;;;;;;;6.88;2.10;;;21.60;58.60;;;;;;5065048;28;20036;-58
2022/06/13 04:16:27;;;;;;;4.40;2.22;;;21.60;58.60;;;;;;5063521;28;20472;-59
2022/06/13 04:19:19;;;;;;;5.82;2.20;;;21.60;58.60;;;;;;5058650;28;20036;-59
2022/06/13 04:22:03;;;;;;;4.20;2.10;;;21.60;58.60;;;;;;5065600;28;20055;-59
2022/06/13 04:24:46;;;;;;;6.40;2.33;;;21.60;58.70;;;;;;5065956;28;20111;-59
2022/06/13 04:27:23;;;;;;;4.18;1.80;;;21.60;58.70;;;;;;5063790;28;20493;-59
2022/06/13 04:30:09;;;;;;;6.93;2.25;;;21.50;58.70;;;;;;5063704;28;20529;-59
2022/06/13 04:32:41;;;;;;;6.55;2.30;;;21.50;58.70;;;;;;5059141;28;20071;-59
2022/06/13 04:35:07;;;;;;;6.25;2.50;;;21.50;58.70;;;;;;5065227;28;20021;-59
2022/06/13 04:37:32;;;;;;;4.82;1.90;;;21.50;58.70;;;;;;5050384;28;20428;-59
2022/06/13 04:40:00;;;;;;;5.22;1.92;;;21.50;58.70;;;;;;5064793;28;20402;-59
2022/06/13 04:42:26;;;;;;;4.65;2.20;;;21.50;58.70;;;;;;5059674;28;20123;-61
2022/06/13 04:44:52;;;;;;;6.35;2.28;;;21.50;58.60;;;;;;5044835;28;20028;-60
2022/06/13 04:47:18;;;;;;;4.38;2.30;;;21.50;59.70;;;;;;5059890;28;20086;-61
2022/06/13 04:49:50;;;;;;;5.03;2.15;;;21.50;58.70;;;;;;5043464;28;20053;-61
2022/06/13 04:52:22;;;;;;;6.90;2.40;;;21.50;58.70;;;;;;5061507;28;20119;-61
2022/06/13 04:54:51;;;;;;;5.90;2.25;;;21.50;58.70;;;;;;5058938;28;20028;-61
2022/06/13 04:57:18;;;;;;;10.07;2.40;;;21.50;58.80;;;;;;5063436;28;20184;-61
2022/06/13 04:59:44;;;;;;;9.88;2.40;;;21.50;58.70;;;;;;5062241;28;20033;-61
2022/06/13 05:02:15;;;;;;;7.07;2.40;;;21.50;58.90;;;;;;5066187;28;20074;-61
2022/06/13 05:04:40;;;;;;;6.88;2.13;;;21.50;59.00;;;;;;5047384;28;20182;-61
2022/06/13 05:07:21;;;;;;;5.47;2.28;;;21.50;58.80;;;;;;5078275;28;20112;-61
2022/06/13 05:09:50;;;;;;;6.82;2.17;;;21.50;58.90;;;;;;5061498;28;20124;-61
2022/06/13 05:12:31;;;;;;;8.05;2.42;;;21.50;58.90;;;;;;5066625;28;20412;-60
2022/06/13 05:15:07;;;;;;;7.80;2.20;;;21.50;58.70;;;;;;5048866;28;20409;-61
2022/06/13 05:17:51;;;;;;;6.47;2.15;;;21.50;58.90;;;;;;5063270;28;20456;-60
2022/06/13 05:20:25;;;;;;;8.68;2.42;;;21.50;58.90;;;;;;5067894;28;20024;-60
2022/06/13 05:23:14;;;;;;;8.10;2.42;;;21.40;58.90;;;;;;5066924;28;20144;-60
2022/06/13 05:25:43;;;;;;;6.72;2.42;;;21.40;58.90;;;;;;5071015;28;20506;-60
2022/06/13 05:28:09;;;;;;;7.15;2.15;;;21.40;59.00;;;;;;5067462;28;20378;-60
2022/06/13 05:30:35;;;;;;;6.35;2.20;;;21.40;60.00;;;;;;5067603;28;20032;-60
2022/06/13 05:33:01;;;;;;;8.20;2.53;;;21.40;58.90;;;;;;5067349;28;20035;-60
2022/06/13 05:35:31;;;;;;;7.63;2.50;;;21.40;59.00;;;;;;5067075;28;20453;-60
2022/06/13 05:37:58;;;;;;;9.02;2.60;;;21.40;59.00;;;;;;5052961;28;20429;-60
2022/06/13 05:40:24;;;;;;;6.45;2.35;;;21.40;59.00;;;;;;5068274;28;20505;-60
2022/06/13 05:42:50;;;;;;;7.15;2.53;;;21.40;59.00;;;;;;5069811;28;20040;-60
2022/06/13 05:45:17;;;;;;;5.72;2.20;;;21.40;59.00;;;;;;5068632;28;20029;-60
2022/06/13 05:47:44;;;;;;;7.63;2.25;;;21.40;59.00;;;;;;5066778;28;20331;-60
2022/06/13 05:50:17;;;;;;;9.85;2.13;;;21.40;58.90;;;;;;5063631;28;20049;-60
2022/06/13 05:52:43;;;;;;;6.88;2.20;;;21.40;59.00;;;;;;5066458;28;20602;-60
2022/06/13 05:55:09;;;;;;;6.78;2.20;;;21.40;59.00;;;;;;5064766;28;20029;-60
2022/06/13 05:57:35;;;;;;;10.75;2.25;;;21.40;58.90;;;;;;5063873;28;20020;-60
2022/06/13 06:00:00;;;;;;;8.40;2.30;;;21.40;58.90;;;;;;5065922;28;20042;-61
2022/06/13 06:02:26;;;;;;;7.15;2.35;;;21.40;58.90;;;;;;5065115;28;20040;-61
2022/06/13 06:04:52;;;;;;;6.68;2.00;;;21.40;59.00;;;;;;5068060;28;20017;-60
2022/06/13 06:07:17;;;;;;;6.93;2.13;;;21.40;58.90;;;;;;5065049;28;20043;-61
2022/06/13 06:09:43;;;;;;;6.03;2.17;;;21.40;58.90;;;;;;5065444;28;20031;-60
2022/06/13 06:12:09;;;;;;;6.18;2.22;;;21.40;58.90;;;;;;5065951;28;20052;-60
2022/06/13 06:14:34;;;;;;;6.43;2.38;;;21.40;58.90;;;;;;5065359;28;20016;-60
2022/06/13 06:17:00;;;;;;;6.95;2.10;;;21.40;59.00;;;;;;5067645;28;20119;-60
2022/06/13 06:19:26;;;;;;;9.50;2.30;;;21.40;58.90;;;;;;5066070;28;20028;-60
2022/06/13 06:21:52;;;;;;;6.75;2.30;;;21.40;59.00;;;;;;5064936;28;20028;-60
2022/06/13 06:24:17;;;;;;;5.63;2.30;;;21.40;59.00;;;;;;5061584;28;20086;-60
2022/06/13 06:26:43;;;;;;;7.00;2.20;;;21.40;59.00;;;;;;5064473;28;20703;-59
2022/06/13 06:29:09;;;;;;;6.80;2.10;;;21.40;59.00;;;;;;5067411;28;20099;-60
2022/06/13 06:31:34;;;;;;;5.38;2.08;;;21.40;59.00;;;;;;5064178;28;20033;-60
2022/06/13 06:34:00;;;;;;;5.65;2.10;;;21.40;59.00;;;;;;5065154;28;20028;-60
2022/06/13 06:36:27;;;;;;;7.05;2.20;;;21.40;59.00;;;;;;5063808;28;20055;-60
2022/06/13 06:38:52;;;;;;;6.28;2.20;;;21.40;59.00;;;;;;5065803;28;20037;-60
2022/06/13 06:41:18;;;;;;;4.43;2.08;;;21.40;58.90;;;;;;5063912;28;20039;-60
2022/06/13 06:43:45;;;;;;;7.97;2.25;;;21.40;59.00;;;;;;5065237;28;20428;-60
2022/06/13 06:46:11;;;;;;;4.95;1.90;;;21.40;58.90;;;;;;5064769;28;20059;-60
2022/06/13 06:48:37;;;;;;;7.95;2.40;;;21.40;58.90;;;;;;5064117;28;20560;-60
2022/06/13 06:51:06;;;;;;;6.95;2.08;;;21.40;58.90;;;;;;5065491;28;20131;-60
2022/06/13 06:59:53;;;;;;;6.40;2.13;;;21.50;59.00;;;;;;5065577;28;20800;-60
2022/06/13 07:01:45;;;;;;;7.88;2.20;;;21.40;58.90;;;;;;5065972;28;20303;-60
2022/06/13 07:04:10;;;;;;;5.18;1.95;;;21.40;58.90;;;;;;5064758;28;20068;-60
2022/06/13 07:06:38;;;;;;;5.38;1.90;;;21.40;58.90;;;;;;5063732;28;20063;-60
2022/06/13 07:09:04;;;;;;;6.05;2.20;;;21.40;58.90;;;;;;5064332;28;20043;-60
2022/06/13 07:14:14;;;;;;;3.88;1.85;;;21.50;58.90;;;;;;5063908;28;20074;-60
2022/06/13 07:16:40;;;;;;;7.45;2.38;;;21.40;58.80;;;;;;5065687;28;20052;-60
2022/06/13 07:19:06;;;;;;;7.72;2.00;;;21.40;58.90;;;;;;5065057;28;20054;-60
2022/06/13 07:21:31;;;;;;;7.32;2.28;;;21.40;58.80;;;;;;5063172;28;20032;-60
2022/06/13 07:23:57;;;;;;;4.55;1.80;;;21.40;58.80;;;;;;5063890;28;20056;-60
2022/06/13 07:26:23;;;;;;;6.28;2.05;;;21.40;58.80;;;;;;5065372;28;20136;-60
2022/06/13 07:28:49;;;;;;;6.32;2.20;;;21.50;58.90;;;;;;5066539;28;20032;-60
2022/06/13 07:31:19;;;;;;;5.38;2.00;;;21.50;58.80;;;;;;5062728;28;20032;-60
2022/06/13 07:33:46;;;;;;;7.45;2.10;;;21.50;58.80;;;;;;5064917;28;20025;-60
2022/06/13 07:36:12;;;;;;;4.80;1.80;;;21.50;58.80;;;;;;5063919;28;20052;-60
2022/06/13 07:38:38;;;;;;;6.53;2.28;;;21.50;58.70;;;;;;5064550;28;20048;-60
2022/06/13 07:41:03;;;;;;;5.00;1.92;;;21.50;58.80;;;;;;5064877;28;20064;-60
2022/06/13 07:43:30;;;;;;;5.95;1.80;;;21.50;58.80;;;;;;5061955;28;20040;-60
2022/06/13 07:45:57;;;;;;;6.65;2.00;;;21.50;58.90;;;;;;5063600;28;20024;-60
2022/06/13 07:48:24;;;;;;;8.93;1.90;;;21.50;58.80;;;;;;5062604;28;20244;-60
2022/06/13 07:50:50;;;;;;;4.80;1.83;;;21.50;58.80;;;;;;5062800;28;20039;-60
2022/06/13 07:53:16;;;;;;;7.40;1.90;;;21.50;58.80;;;;;;5064000;28;20028;-60
2022/06/13 07:55:42;;;;;;;6.18;2.00;;;21.50;58.80;;;;;;5064025;28;20037;-60
2022/06/13 07:58:21;;;;;;;4.82;1.83;;;21.50;58.80;;;;;;5062200;28;20040;-59
2022/06/13 08:00:49;;;;;;;5.38;2.10;;;21.60;58.80;;;;;;5063308;28;20398;-60
2022/06/13 08:03:21;;;;;;;6.78;2.03;;;21.60;58.80;;;;;;5062416;28;20086;-60
2022/06/13 08:05:46;;;;;;;8.38;1.90;;;21.60;58.80;;;;;;5060110;28;20524;-60
2022/06/13 08:08:12;;;;;;;7.07;2.05;;;21.60;58.90;;;;;;5062854;28;20082;-61
2022/06/13 08:10:39;;;;;;;3.70;1.83;;;21.60;58.80;;;;;;5064825;28;20166;-60
2022/06/13 08:13:05;;;;;;;5.20;2.10;;;21.60;58.90;;;;;;5063759;28;20024;-60
2022/06/13 08:15:31;;;;;;;6.38;2.00;;;21.60;58.90;;;;;;5063838;28;20733;-60
2022/06/13 08:17:57;;;;;;;4.95;1.88;;;21.70;59.00;;;;;;5062011;28;20071;-61
2022/06/13 08:20:23;;;;;;;7.32;2.15;;;21.70;59.00;;;;;;5060675;28;20786;-60
2022/06/13 08:22:49;;;;;;;5.28;1.98;;;21.60;59.00;;;;;;5065649;28;20037;-60
2022/06/13 08:25:25;;;;;;;6.50;2.00;;;21.60;58.80;;;;;;5063480;28;20543;-60
2022/06/13 08:27:50;;;;;;;7.65;2.15;;;21.70;58.90;;;;;;5059871;28;20033;-60
2022/06/13 08:30:16;;;;;;;5.30;1.85;;;21.70;59.00;;;;;;5061607;28;20078;-60
2022/06/13 08:32:42;;;;;;;6.93;2.22;;;21.70;59.00;;;;;;5063259;28;20041;-60
2022/06/13 08:35:08;;;;;;;9.35;2.10;;;21.70;59.00;;;;;;5065560;28;20532;-60
2022/06/13 08:37:34;;;;;;;4.47;1.70;;;21.70;59.00;;;;;;5062472;28;20059;-60
2022/06/13 08:40:00;;;;;;;4.32;1.80;;;21.80;58.90;;;;;;5063446;28;20032;-60
2022/06/13 08:42:48;;;;;;;5.03;1.80;;;21.80;59.00;;;;;;5063115;28;20405;-60
2022/06/13 08:45:22;;;;;;;5.75;1.70;;;21.70;58.90;;;;;;5062270;28;20485;-60
2022/06/13 08:48:06;;;;;;;5.50;2.08;;;21.70;58.90;;;;;;5062223;28;20111;-60
2022/06/13 08:50:50;;;;;;;5.78;2.15;;;21.80;58.90;;;;;;5062524;28;20502;-59
2022/06/13 08:53:21;;;;;;;4.13;1.90;;;21.80;58.90;;;;;;5063899;28;20032;-60
2022/06/13 08:55:48;;;;;;;5.63;1.95;;;21.80;58.90;;;;;;5067407;28;20028;-60
2022/06/13 08:58:28;;;;;;;5.35;1.80;;;21.80;58.90;;;;;;5067745;28;20060;-60
2022/06/13 09:00:59;;;;;;;4.95;1.80;;;21.80;58.90;;;;;;5064202;28;20516;-60
2022/06/13 09:03:34;;;;;;;5.70;2.00;;;21.80;58.90;;;;;;5066498;28;20410;-59
2022/06/13 09:06:38;;;;;;;5.40;2.00;;;21.80;58.90;;;;;;5063154;28;20024;-60
2022/06/13 09:09:27;;;;;;;7.18;1.90;;;21.90;58.80;;;;;;5066954;28;20086;-60
2022/06/13 09:11:56;;;;;;;5.55;1.90;;;21.90;58.90;;;;;;5067681;28;20030;-60
2022/06/13 09:14:25;;;;;;;4.28;1.83;;;21.90;58.90;;;;;;5065337;28;20025;-60
2022/06/13 09:17:11;;;;;;;6.07;2.00;;;21.90;58.80;;;;;;5052474;28;20475;-60
2022/06/13 09:20:10;;;;;;;7.10;2.00;;;21.90;58.80;;;;;;5067754;28;20031;-60
2022/06/13 09:22:39;;;;;;;4.05;1.70;;;21.90;58.90;;;;;;5066710;28;20037;-61
2022/06/13 09:25:22;;;;;;;4.55;1.52;;;21.90;59.00;;;;;;5065494;28;20016;-61
2022/06/13 09:27:56;;;;;;;5.15;2.10;;;21.90;58.90;;;;;;5063288;28;20115;-60
2022/06/13 09:30:24;;;;;;;6.35;2.22;;;21.90;58.80;;;;;;5067050;28;20066;-60
2022/06/13 09:32:54;;;;;;;3.75;1.83;;;22.00;58.80;;;;;;5066054;28;20115;-61
2022/06/13 09:35:32;;;;;;;4.80;1.80;;;22.00;58.80;;;;;;5066708;28;20073;-60
2022/06/13 09:38:04;;;;;;;4.47;1.85;;;22.00;58.90;;;;;;5066878;28;20501;-60
2022/06/13 09:40:38;;;;;;;5.57;1.88;;;22.00;58.80;;;;;;5066306;28;20454;-60
2022/06/13 09:43:22;;;;;;;6.85;2.20;;;22.00;58.80;;;;;;5063801;28;20078;-60
2022/06/13 09:46:00;;;;;;;6.47;2.10;;;22.00;58.80;;;;;;5066532;28;20027;-60
2022/06/13 09:48:47;;;;;;;5.88;2.00;;;22.00;58.80;;;;;;5066296;28;20028;-60
2022/06/13 09:51:17;;;;;;;5.40;1.67;;;22.10;58.90;;;;;;5065804;28;20043;-60
2022/06/13 09:53:50;;;;;;;4.65;2.08;;;22.10;58.80;;;;;;5062638;28;20068;-60
2022/06/13 09:56:20;;;;;;;8.90;2.70;;;22.10;59.20;;;;;;5065562;28;20028;-60
2022/06/13 09:58:54;;;;;;;14.73;3.38;;;22.10;59.60;;;;;;5065494;28;20174;-59
2022/06/13 10:01:30;;;;;;;7.25;2.25;;;22.20;61.30;;;;;;5064282;28;20029;-60
2022/06/13 10:03:59;;;;;;;8.70;2.30;;;22.20;60.50;;;;;;5065134;28;20043;-60
2022/06/13 10:06:27;;;;;;;14.50;4.93;;;22.20;60.00;;;;;;5063965;28;20028;-60
2022/06/13 10:09:04;;;;;;;17.20;7.78;;;22.20;59.60;;;;;;5066228;28;20032;-61
2022/06/13 10:11:38;;;;;;;25.77;12.60;;;22.30;59.70;;;;;;5066240;28;20021;-60
2022/06/13 10:14:40;;;;;;;22.42;10.88;;;22.30;59.70;;;;;;5066792;28;20045;-59
2022/06/13 10:17:09;;;;;;;20.73;10.57;;;22.30;59.70;;;;;;5067441;28;20052;-60
2022/06/13 10:19:56;;;;;;;21.38;10.30;;;22.30;59.60;;;;;;5065904;28;20481;-60
2022/06/13 10:22:28;;;;;;;19.55;10.15;;;22.30;59.70;;;;;;5064719;28;20033;-60
2022/06/13 10:25:05;;;;;;;21.80;10.27;;;22.30;59.60;;;;;;5065640;28;20017;-60
2022/06/13 10:28:06;;;;;;;19.75;10.77;;;22.30;59.50;;;;;;5065952;28;20580;-60
2022/06/13 10:31:03;;;;;;;22.55;10.88;;;22.30;59.50;;;;;;5022333;28;20561;-60
2022/06/13 10:33:59;;;;;;;23.23;10.55;;;22.40;59.50;;;;;;5023960;28;20034;-60
2022/06/13 10:36:30;;;;;;;24.02;11.23;;;22.40;59.40;;;;;;5019608;28;20083;-60
2022/06/13 10:39:04;;;;;;;20.77;10.38;;;22.40;59.40;;;;;;5025019;28;20545;-60
2022/06/13 10:41:30;;;;;;;22.67;10.07;;;22.40;59.30;;;;;;5024427;28;20094;-60
2022/06/13 10:43:56;;;;;;;18.67;9.48;;;22.40;59.30;;;;;;5026352;28;20029;-60
2022/06/13 10:46:22;;;;;;;20.10;9.75;;;22.40;59.20;;;;;;5006158;28;20038;-60
2022/06/13 10:48:55;;;;;;;22.15;10.55;;;22.40;59.20;;;;;;5023679;28;20109;-60
2022/06/13 10:51:22;;;;;;;17.70;9.38;;;22.40;59.20;;;;;;5021147;28;20049;-61
2022/06/13 10:53:51;;;;;;;17.70;9.52;;;22.40;59.20;;;;;;5024770;28;20060;-60
2022/06/13 10:56:22;;;;;;;20.10;10.00;;;22.50;59.30;;;;;;5024738;28;20029;-60
2022/06/13 10:58:52;;;;;;;18.05;9.52;;;22.50;59.30;;;;;;5024504;28;20129;-60
2022/06/13 11:01:22;;;;;;;17.15;9.43;;;22.50;59.20;;;;;;5023125;28;20037;-60
2022/06/13 11:03:57;;;;;;;18.23;8.80;;;22.50;59.20;;;;;;5023067;28;20036;-60
2022/06/13 11:06:23;;;;;;;17.90;9.32;;;22.50;59.20;;;;;;5027355;28;20049;-60
2022/06/13 11:09:03;;;;;;;17.98;9.05;;;22.50;59.30;;;;;;5065937;28;20103;-60
2022/06/13 11:11:36;;;;;;;19.40;9.32;;;22.50;59.30;;;;;;5064032;28;20060;-60
2022/06/13 11:14:02;;;;;;;15.75;8.48;;;22.50;59.30;;;;;;5064197;28;20025;-60
2022/06/13 11:22:38;;;;;;;16.33;8.20;;;22.60;59.20;;;;;;5058867;28;20047;-59
2022/06/13 11:25:18;;;;;;;20.10;8.43;;;22.60;59.20;;;;;;5062413;28;20036;-60
2022/06/13 11:27:47;;;;;;;16.75;8.57;;;22.60;59.30;;;;;;5063350;28;20118;-60
2022/06/13 11:30:34;;;;;;;15.25;8.05;;;22.60;59.20;;;;;;5060798;28;20013;-60
2022/06/13 11:33:10;;;;;;;15.32;8.40;;;22.60;59.20;;;;;;5063564;28;21919;-61
2022/06/13 11:35:42;;;;;;;15.52;8.00;;;22.60;59.20;;;;;;5063083;28;20641;-60
2022/06/13 11:38:14;;;;;;;17.88;8.32;;;22.60;59.10;;;;;;5063944;28;20501;-60
2022/06/13 11:40:40;;;;;;;17.70;7.80;;;22.70;59.20;;;;;;5065739;28;20025;-60
2022/06/13 11:43:18;;;;;;;14.73;8.20;;;22.70;59.20;;;;;;5061064;28;20043;-60
2022/06/13 11:45:43;;;;;;;14.40;7.78;;;22.70;59.10;;;;;;5063821;28;20162;-60
2022/06/13 11:48:13;;;;;;;17.63;7.38;;;22.70;59.10;;;;;;5064280;28;20107;-60
2022/06/13 11:50:38;;;;;;;13.70;7.40;;;22.70;59.00;;;;;;5063099;28;20409;-61
2022/06/13 11:55:53;;;;;;;16.05;7.53;;;22.70;59.00;;;;;;5064174;28;20539;-61
2022/06/13 11:58:25;;;;;;;13.95;6.93;;;22.80;59.00;;;;;;5064141;28;20552;-60
2022/06/13 12:00:53;;;;;;;15.27;7.53;;;22.70;59.00;;;;;;5059711;28;20040;-60
2022/06/13 12:03:25;;;;;;;15.88;7.25;;;22.80;59.00;;;;;;5064917;28;20041;-60
2022/06/13 12:05:59;;;;;;;14.30;6.90;;;22.80;58.90;;;;;;5064877;28;20020;-61
2022/06/13 12:08:27;;;;;;;14.50;7.50;;;22.80;58.90;;;;;;5062973;28;20037;-60
2022/06/13 12:11:13;;;;;;;13.80;6.95;;;22.80;58.90;;;;;;5066144;28;20396;-61
2022/06/13 12:13:40;;;;;;;13.13;6.57;;;22.80;58.80;;;;;;5062178;28;20108;-60
2022/06/13 12:16:11;;;;;;;15.32;7.15;;;22.80;58.80;;;;;;5064165;28;20488;-61
2022/06/13 12:18:40;;;;;;;16.63;7.10;;;22.90;58.80;;;;;;5060007;28;20026;-60
2022/06/13 12:21:23;;;;;;;15.40;7.03;;;22.80;58.40;;;;;;5063273;28;20037;-61
2022/06/13 12:23:55;;;;;;;14.82;6.82;;;22.80;58.70;;;;;;5063669;28;20032;-60
2022/06/13 12:26:42;;;;;;;16.35;6.53;;;22.80;58.50;;;;;;5061940;28;20032;-60
2022/06/13 12:29:39;;;;;;;15.80;6.53;;;22.80;58.00;;;;;;5063917;28;20040;-60
2022/06/13 12:32:33;;;;;;;14.13;6.10;;;22.90;57.80;;;;;;5063548;28;20028;-59
2022/06/13 12:35:05;;;;;;;11.98;5.78;;;22.90;57.60;;;;;;5060136;28;20029;-60
2022/06/13 12:37:40;;;;;;;12.77;5.82;;;22.90;57.60;;;;;;5062988;28;20841;-60
2022/06/13 12:40:11;;;;;;;;;;;22.90;57.60;;;;;;5079352;28;20063;-59
2022/06/13 12:42:58;;;;;;;15.02;6.13;;;23.00;57.70;;;;;;5064186;28;19916;-60
2022/06/13 12:45:44;;;;;;;12.63;5.68;;;22.90;57.60;;;;;;5061968;28;20017;-59
2022/06/13 12:48:17;;;;;;;11.93;5.40;;;23.00;57.60;;;;;;5061250;28;20640;-60
2022/06/13 12:50:43;;;;;;;11.93;5.40;;;23.00;57.50;;;;;;5061707;28;20094;-60
2022/06/13 12:53:36;;;;;;;13.25;5.45;;;23.00;57.40;;;;;;5065206;28;20027;-61
2022/06/13 12:56:09;;;;;;;14.45;5.30;;;23.00;57.40;;;;;;5065276;28;20074;-60
2022/06/13 12:59:01;;;;;;;14.10;5.55;;;23.00;57.40;;;;;;5063857;28;20040;-60
2022/06/13 13:01:55;;;;;;;15.82;5.70;;;23.00;57.30;;;;;;5062888;28;20025;-59
2022/06/13 13:04:34;;;;;;;13.07;5.20;;;23.10;57.30;;;;;;5061912;28;20070;-60
2022/06/13 13:07:36;;;;;;;11.30;4.93;;;23.10;57.30;;;;;;5060742;28;20044;-61
2022/06/13 13:10:30;;;;;;;12.73;5.50;;;23.10;57.30;;;;;;5060597;28;20047;-60
2022/06/13 13:13:05;;;;;;;10.50;5.20;;;23.10;57.20;;;;;;5061747;28;20016;-61
2022/06/13 13:15:40;;;;;;;11.32;4.85;;;23.10;57.20;;;;;;5063267;28;20519;-60
2022/06/13 13:18:31;;;;;;;11.25;5.13;;;23.10;57.10;;;;;;5063023;28;20024;-61
2022/06/13 13:21:33;;;;;;;11.55;5.28;;;23.20;57.10;;;;;;5062810;28;20017;-60
2022/06/13 13:24:47;;;;;;;12.15;5.15;;;23.20;57.10;;;;;;5053619;28;20052;-60
2022/06/13 13:27:14;;;;;;;10.60;5.18;;;23.20;57.00;;;;;;5038842;28;20037;-60
2022/06/13 13:30:04;;;;;;;10.70;5.00;;;23.20;56.90;;;;;;5041997;28;20060;-60
2022/06/13 13:32:36;;;;;;;12.95;5.05;;;23.20;56.90;;;;;;5041624;28;20052;-60
2022/06/13 13:35:08;;;;;;;12.93;4.97;;;23.20;56.80;;;;;;5043249;28;20040;-60
2022/06/13 13:37:40;;;;;;;11.23;5.15;;;23.30;56.80;;;;;;5042389;28;20116;-60